createdAt,value
2023-04-13T00:01:11.385Z,5.50
2023-04-13T00:03:39.454Z,5.60
2023-04-13T00:06:11.059Z,5.50
2023-04-13T00:08:38.590Z,5.60
2023-04-13T00:11:08.577Z,5.50
2023-04-13T00:13:41.532Z,5.50
2023-04-13T00:16:13.394Z,5.50
2023-04-13T00:18:40.758Z,5.50
2023-04-13T00:21:08.508Z,5.50
2023-04-13T00:23:36.454Z,5.50
2023-04-13T00:26:03.771Z,5.40
2023-04-13T00:28:30.808Z,5.50
2023-04-13T00:30:58.181Z,5.50
2023-04-13T00:33:30.248Z,5.60
2023-04-13T00:36:07.566Z,5.60
2023-04-13T00:38:35.802Z,5.60
2023-04-13T00:41:04.117Z,5.50
2023-04-13T00:43:31.985Z,5.50
2023-04-13T00:46:02.636Z,5.50
2023-04-13T00:48:29.642Z,5.60
2023-04-13T00:50:59.077Z,5.50
2023-04-13T00:53:26.073Z,5.50
2023-04-13T00:55:53.398Z,5.60
2023-04-13T00:58:20.302Z,5.60
2023-04-13T01:00:47.391Z,5.60
2023-04-13T01:03:14.749Z,5.60
2023-04-13T01:06:33.896Z,5.80
2023-04-13T01:09:11.553Z,5.90
2023-04-13T01:11:45.142Z,6.00
2023-04-13T01:14:36.891Z,6.20
2023-04-13T01:17:10.796Z,6.30
2023-04-13T01:20:01.839Z,6.40
2023-04-13T01:22:36.807Z,6.50
2023-04-13T01:25:18.693Z,6.70
2023-04-13T01:28:05.466Z,6.70
2023-04-13T01:30:42.531Z,6.80
2023-04-13T01:33:11.271Z,6.80
2023-04-13T01:35:39.343Z,6.80
2023-04-13T01:38:08.815Z,6.70
2023-04-13T01:40:42.152Z,6.70
2023-04-13T01:43:09.232Z,6.70
2023-04-13T01:46:06.599Z,6.70
2023-04-13T01:48:40.709Z,6.70
2023-04-13T01:51:32.347Z,6.60
2023-04-13T01:54:23.214Z,6.60
2023-04-13T01:56:51.462Z,6.60
2023-04-13T01:59:20.299Z,6.70
2023-04-13T02:01:49.119Z,6.70
2023-04-13T02:04:16.348Z,6.70
2023-04-13T02:06:43.466Z,6.70
2023-04-13T02:09:11.356Z,6.70
2023-04-13T02:11:42.125Z,6.60
2023-04-13T02:14:09.710Z,6.60
2023-04-13T02:16:36.664Z,6.60
2023-04-13T02:19:03.568Z,6.70
2023-04-13T02:21:30.450Z,6.80
2023-04-13T02:23:57.611Z,6.80
2023-04-13T02:26:26.341Z,6.70
2023-04-13T02:28:53.429Z,6.70
2023-04-13T02:31:23.717Z,6.80
2023-04-13T02:33:51.974Z,6.80
2023-04-13T02:36:19.428Z,6.80
2023-04-13T02:38:46.626Z,6.70
2023-04-13T02:41:13.583Z,6.70
2023-04-13T02:43:41.720Z,6.70
2023-04-13T02:46:09.008Z,6.80
2023-04-13T02:48:36.723Z,6.70
2023-04-13T02:51:03.860Z,6.70
2023-04-13T02:53:30.733Z,6.70
2023-04-13T02:55:57.804Z,6.70
2023-04-13T02:58:25.432Z,6.70
2023-04-13T03:00:52.691Z,6.70
2023-04-13T03:03:20.491Z,6.80
2023-04-13T03:05:50.491Z,6.70
2023-04-13T03:08:17.533Z,6.80
2023-04-13T03:10:45.117Z,6.80
2023-04-13T03:13:12.212Z,6.90
2023-04-13T03:15:40.811Z,6.90
2023-04-13T03:18:07.805Z,7.00
2023-04-13T03:20:35.007Z,7.00
2023-04-13T03:23:02.117Z,7.00
2023-04-13T03:25:29.468Z,7.10
2023-04-13T03:27:56.744Z,7.10
2023-04-13T03:30:24.038Z,7.10
2023-04-13T03:32:52.508Z,7.20
2023-04-13T03:35:19.729Z,7.20
2023-04-13T03:37:46.831Z,7.30
2023-04-13T03:40:13.821Z,7.20
2023-04-13T03:42:40.764Z,7.30
2023-04-13T03:45:08.623Z,7.30
2023-04-13T03:47:35.532Z,7.30
2023-04-13T03:50:03.998Z,7.30
2023-04-13T03:52:31.359Z,7.20
2023-04-13T03:54:58.575Z,7.20
2023-04-13T03:57:25.699Z,7.20
2023-04-13T03:59:53.029Z,7.20
2023-04-13T04:02:20.101Z,7.20
2023-04-13T04:04:47.207Z,7.20
2023-04-13T04:07:14.406Z,7.20
2023-04-13T04:09:42.218Z,7.10
2023-04-13T04:12:09.127Z,7.10
2023-04-13T04:14:36.208Z,7.20
2023-04-13T04:17:03.248Z,7.20
2023-04-13T04:19:31.181Z,7.20
2023-04-13T04:21:58.210Z,7.10
2023-04-13T04:24:27.785Z,7.10
2023-04-13T04:26:55.646Z,7.20
2023-04-13T04:29:22.779Z,7.20
2023-04-13T04:31:53.834Z,7.10
2023-04-13T04:34:21.278Z,7.10
2023-04-13T04:36:52.055Z,7.20
2023-04-13T04:39:22.507Z,7.20
2023-04-13T04:41:54.389Z,7.10
2023-04-13T04:44:25.316Z,7.10
2023-04-13T04:46:52.853Z,7.10
2023-04-13T04:49:21.746Z,7.10
2023-04-13T04:51:49.301Z,7.10
2023-04-13T04:54:19.781Z,7.10
2023-04-13T04:56:48.145Z,7.10
2023-04-13T04:59:15.141Z,7.10
2023-04-13T05:01:43.429Z,7.10
2023-04-13T05:04:11.007Z,7.20
2023-04-13T05:06:41.211Z,7.10
2023-04-13T05:09:09.076Z,7.20
2023-04-13T05:11:36.756Z,7.10
2023-04-13T05:14:03.801Z,7.10
2023-04-13T05:16:31.838Z,7.00
2023-04-13T05:18:59.122Z,7.00
2023-04-13T05:21:27.229Z,7.00
2023-04-13T05:23:54.248Z,7.00
2023-04-13T05:26:21.177Z,6.90
2023-04-13T05:28:48.204Z,6.90
2023-04-13T05:31:16.028Z,6.80
2023-04-13T05:33:43.330Z,6.80
2023-04-13T05:36:10.391Z,6.80
2023-04-13T05:38:37.380Z,6.80
2023-04-13T05:41:04.567Z,6.90
2023-04-13T05:43:31.512Z,6.90
2023-04-13T05:45:58.477Z,6.90
2023-04-13T05:48:26.625Z,6.90
2023-04-13T05:51:00.334Z,6.90
2023-04-13T05:53:28.215Z,6.90
2023-04-13T05:55:55.977Z,6.90
2023-04-13T05:58:22.923Z,7.00
2023-04-13T06:00:49.905Z,7.00
2023-04-13T06:03:17.515Z,7.10
2023-04-13T06:05:44.875Z,7.20
2023-04-13T06:08:12.142Z,7.30
2023-04-13T06:10:39.259Z,7.50
2023-04-13T06:13:06.215Z,7.80
2023-04-13T06:15:36.617Z,7.70
2023-04-13T06:18:03.648Z,7.60
2023-04-13T06:20:32.223Z,7.50
2023-04-13T06:22:59.181Z,7.50
2023-04-13T06:25:26.208Z,7.60
2023-04-13T06:27:54.542Z,7.60
2023-04-13T06:30:23.436Z,7.60
2023-04-13T06:32:54.102Z,7.70
2023-04-13T06:35:22.146Z,7.70
2023-04-13T06:37:49.152Z,7.80
2023-04-13T06:40:16.783Z,7.90
2023-04-13T06:42:44.141Z,8.00
2023-04-13T06:45:12.345Z,8.00
2023-04-13T06:47:43.035Z,8.10
2023-04-13T06:50:14.152Z,8.30
2023-04-13T06:52:43.992Z,8.50
2023-04-13T06:55:11.115Z,8.70
2023-04-13T06:57:38.109Z,8.90
2023-04-13T07:00:22.205Z,9.00
2023-04-13T07:02:53.730Z,9.10
2023-04-13T07:05:21.037Z,8.90
2023-04-13T07:07:48.000Z,9.00
2023-04-13T07:10:15.024Z,9.00
2023-04-13T07:12:42.431Z,8.90
2023-04-13T07:15:09.851Z,9.00
2023-04-13T07:17:37.080Z,9.10
2023-04-13T07:20:05.842Z,9.10
2023-04-13T07:22:33.724Z,9.00
2023-04-13T07:25:01.440Z,9.00
2023-04-13T07:27:28.477Z,8.90
2023-04-13T07:29:55.809Z,8.80
2023-04-13T07:32:28.066Z,8.80
2023-04-13T07:35:02.321Z,8.80
2023-04-13T07:37:29.889Z,9.00
2023-04-13T07:39:56.827Z,9.00
2023-04-13T07:42:24.669Z,9.10
2023-04-13T07:44:55.580Z,9.00
2023-04-13T07:47:22.701Z,9.10
2023-04-13T07:49:49.649Z,9.10
2023-04-13T07:52:17.140Z,9.30
2023-04-13T07:54:44.114Z,9.30
2023-04-13T07:57:11.288Z,9.30
2023-04-13T07:59:38.329Z,9.50
2023-04-13T08:02:05.868Z,10.00
2023-04-13T08:04:34.101Z,10.30
2023-04-13T08:07:05.072Z,11.10
2023-04-13T08:09:36.749Z,11.10
2023-04-13T08:12:04.334Z,11.60
2023-04-13T08:14:31.371Z,11.70
2023-04-13T08:16:58.521Z,11.50
2023-04-13T08:19:25.678Z,12.40
2023-04-13T08:21:52.729Z,12.70
2023-04-13T08:24:22.634Z,12.40
2023-04-13T08:26:49.761Z,12.60
2023-04-13T08:29:16.939Z,13.50
2023-04-13T08:31:44.514Z,14.60
2023-04-13T08:34:12.998Z,14.50
2023-04-13T08:36:40.762Z,13.80
2023-04-13T08:39:10.816Z,13.80
2023-04-13T08:41:42.045Z,14.20
2023-04-13T08:44:13.694Z,14.00
2023-04-13T08:46:44.987Z,13.50
2023-04-13T08:49:12.840Z,12.90
2023-04-13T08:51:42.190Z,12.30
2023-04-13T08:54:09.366Z,11.80
2023-04-13T08:56:46.069Z,11.40
2023-04-13T08:59:16.035Z,10.90
2023-04-13T09:01:47.330Z,10.70
2023-04-13T09:04:20.076Z,10.70
2023-04-13T09:06:51.133Z,10.50
2023-04-13T09:09:22.843Z,10.50
2023-04-13T09:11:51.938Z,10.40
2023-04-13T09:14:22.587Z,10.40
2023-04-13T09:16:50.941Z,10.60
2023-04-13T09:19:28.759Z,10.70
2023-04-13T09:21:56.186Z,10.70
2023-04-13T09:24:23.587Z,10.50
2023-04-13T09:26:51.073Z,10.50
2023-04-13T09:29:20.598Z,10.70
2023-04-13T09:31:48.540Z,10.70
2023-04-13T09:34:27.601Z,10.70
2023-04-13T09:36:56.708Z,10.80
2023-04-13T09:39:28.998Z,10.90
2023-04-13T09:41:56.788Z,11.20
2023-04-13T09:44:35.726Z,11.30
2023-04-13T09:47:04.596Z,11.20
2023-04-13T09:49:44.683Z,11.40
2023-04-13T09:52:25.205Z,11.50
2023-04-13T09:55:00.151Z,11.70
2023-04-13T09:57:28.808Z,11.80
2023-04-13T10:00:07.764Z,11.90
2023-04-13T10:02:35.993Z,11.80
2023-04-13T10:05:04.101Z,11.50
2023-04-13T10:07:37.196Z,11.20
2023-04-13T10:10:04.769Z,11.30
2023-04-13T10:12:33.246Z,11.40
2023-04-13T10:15:12.771Z,11.80
2023-04-13T10:18:13.691Z,11.80
2023-04-13T10:20:41.809Z,12.00
2023-04-13T10:23:09.222Z,12.20
2023-04-13T10:25:39.145Z,12.20
2023-04-13T10:28:07.153Z,12.20
2023-04-13T10:30:34.511Z,12.20
2023-04-13T10:33:10.027Z,11.90
2023-04-13T10:35:43.374Z,11.80
2023-04-13T10:38:10.894Z,11.90
2023-04-13T10:40:48.156Z,12.40
2023-04-13T10:43:31.396Z,12.70
2023-04-13T10:46:18.649Z,12.60
2023-04-13T10:48:55.709Z,12.60
2023-04-13T10:51:22.652Z,12.50
2023-04-13T10:53:49.635Z,12.60
2023-04-13T10:56:17.973Z,12.50
2023-04-13T10:58:53.006Z,12.20
2023-04-13T11:01:20.835Z,11.90
2023-04-13T11:03:57.030Z,11.80
2023-04-13T11:06:37.081Z,11.60
2023-04-13T11:09:07.119Z,11.40
2023-04-13T11:11:36.216Z,11.30
2023-04-13T11:14:03.990Z,11.40
2023-04-13T11:16:31.412Z,11.40
2023-04-13T11:19:03.210Z,11.30
2023-04-13T11:21:32.563Z,11.30
2023-04-13T11:24:02.200Z,11.30
2023-04-13T11:26:34.396Z,11.40
2023-04-13T11:29:03.919Z,11.40
2023-04-13T11:31:42.533Z,11.40
2023-04-13T11:34:14.131Z,11.50
2023-04-13T11:36:41.320Z,11.40
2023-04-13T11:39:10.796Z,11.50
2023-04-13T11:41:42.233Z,11.50
2023-04-13T11:44:12.155Z,11.50
2023-04-13T11:46:39.298Z,11.50
2023-04-13T11:49:06.776Z,11.40
2023-04-13T11:51:35.258Z,11.50
2023-04-13T11:54:02.607Z,11.60
2023-04-13T11:56:31.189Z,11.70
2023-04-13T12:01:30.874Z,12.30
2023-04-13T12:04:14.956Z,12.50
2023-04-13T12:06:46.068Z,12.60
2023-04-13T12:09:16.829Z,12.60
2023-04-13T12:11:50.378Z,12.60
2023-04-13T12:19:26.660Z,12.80
2023-04-13T12:21:57.307Z,12.90
2023-04-13T12:24:39.410Z,12.90
2023-04-13T12:29:40.621Z,12.80
2023-04-13T12:32:15.224Z,12.80
2023-04-13T12:34:43.853Z,12.70
2023-04-13T12:37:11.772Z,12.70
2023-04-13T12:39:38.996Z,12.90
2023-04-13T12:42:06.321Z,13.00
2023-04-13T12:44:34.358Z,13.10
2023-04-13T12:47:02.081Z,13.20
2023-04-13T12:49:30.115Z,13.30
2023-04-13T12:51:57.203Z,13.40
2023-04-13T12:54:24.674Z,13.50
2023-04-13T12:56:52.136Z,13.70
2023-04-13T12:59:22.083Z,13.60
2023-04-13T13:01:49.610Z,13.60
2023-04-13T13:04:17.347Z,13.40
2023-04-13T13:06:44.428Z,13.40
2023-04-13T13:09:12.005Z,13.30
2023-04-13T13:11:39.402Z,13.20
2023-04-13T13:14:08.196Z,13.20
2023-04-13T13:16:36.482Z,13.10
2023-04-13T13:19:03.751Z,13.20
2023-04-13T13:21:31.601Z,13.30
2023-04-13T13:23:58.928Z,13.30
2023-04-13T13:26:33.111Z,13.30
2023-04-13T13:29:07.204Z,13.20
2023-04-13T13:31:36.918Z,13.20
2023-04-13T13:34:07.882Z,13.20
2023-04-13T13:36:38.369Z,13.30
2023-04-13T13:39:05.903Z,13.40
2023-04-13T13:41:33.271Z,13.50
2023-04-13T13:44:00.763Z,13.50
2023-04-13T13:46:27.857Z,13.50
2023-04-13T13:48:56.243Z,13.40
2023-04-13T13:51:23.646Z,13.30
2023-04-13T13:53:50.723Z,13.30
2023-04-13T13:56:18.023Z,13.40
2023-04-13T13:58:48.234Z,13.60
2023-04-13T14:01:17.025Z,13.80
2023-04-13T14:03:44.719Z,13.80
2023-04-13T14:06:11.936Z,13.70
2023-04-13T14:08:39.089Z,13.60
2023-04-13T14:11:06.112Z,13.50
2023-04-13T14:13:33.140Z,13.40
2023-04-13T14:16:00.489Z,13.50
2023-04-13T14:18:27.507Z,13.70
2023-04-13T14:20:54.615Z,13.80
2023-04-13T14:23:21.730Z,13.80
2023-04-13T14:25:49.260Z,13.80
2023-04-13T14:28:17.663Z,13.70
2023-04-13T14:30:45.406Z,13.70
2023-04-13T14:33:14.848Z,13.60
2023-04-13T14:35:44.678Z,13.50
2023-04-13T14:38:11.728Z,13.50
2023-04-13T14:40:38.832Z,13.30
2023-04-13T14:43:05.814Z,13.10
2023-04-13T14:45:32.967Z,13.10
2023-04-13T14:48:00.217Z,13.00
2023-04-13T14:50:27.330Z,13.00
2023-04-13T14:52:54.418Z,12.90
2023-04-13T14:55:23.568Z,13.10
2023-04-13T14:57:51.532Z,13.30
2023-04-13T15:00:22.781Z,13.60
2023-04-13T15:02:53.666Z,13.70
2023-04-13T15:05:21.270Z,13.70
2023-04-13T15:07:48.640Z,13.50
2023-04-13T15:10:16.690Z,13.40
2023-04-13T15:12:43.875Z,13.30
2023-04-13T15:15:11.431Z,13.30
2023-04-13T15:17:38.883Z,13.30
2023-04-13T15:20:10.118Z,13.40
2023-04-13T15:22:38.990Z,13.50
2023-04-13T15:25:07.516Z,13.60
2023-04-13T15:27:38.977Z,13.80
2023-04-13T15:30:10.934Z,13.90
2023-04-13T15:32:42.601Z,13.90
2023-04-13T15:35:14.309Z,13.80
2023-04-13T15:37:42.409Z,13.80
2023-04-13T15:40:11.397Z,13.80
2023-04-13T15:42:38.730Z,13.90
2023-04-13T15:45:07.775Z,14.00
2023-04-13T15:47:35.217Z,14.00
2023-04-13T15:50:04.793Z,14.00
2023-04-13T15:52:33.316Z,14.00
2023-04-13T15:55:00.768Z,14.00
2023-04-13T15:57:27.867Z,13.90
2023-04-13T15:59:56.999Z,13.80
2023-04-13T16:02:24.587Z,13.70
2023-04-13T16:04:52.643Z,13.60
2023-04-13T16:07:22.347Z,13.50
2023-04-13T16:09:58.766Z,13.50
2023-04-13T16:12:32.461Z,13.50
2023-04-13T16:15:00.475Z,13.50
2023-04-13T16:17:31.823Z,13.50
2023-04-13T16:20:05.573Z,13.50
2023-04-13T16:22:37.557Z,13.60
2023-04-13T16:25:05.659Z,13.70
2023-04-13T16:27:32.707Z,13.70
2023-04-13T16:29:59.905Z,13.70
2023-04-13T16:32:27.618Z,13.70
2023-04-13T16:34:55.797Z,13.80
2023-04-13T16:37:24.226Z,13.80
2023-04-13T16:39:51.267Z,13.80
2023-04-13T16:42:18.865Z,13.70
2023-04-13T16:44:47.470Z,13.60
2023-04-13T16:47:14.452Z,13.50
2023-04-13T16:49:42.427Z,13.30
2023-04-13T16:52:10.957Z,13.20
2023-04-13T16:54:46.607Z,13.10
2023-04-13T16:57:13.651Z,13.00
2023-04-13T16:59:40.555Z,12.90
2023-04-13T17:02:11.166Z,12.90
2023-04-13T17:04:42.525Z,12.80
2023-04-13T17:07:10.509Z,12.70
2023-04-13T17:09:41.029Z,12.70
2023-04-13T17:12:08.447Z,12.50
2023-04-13T17:14:36.020Z,12.50
2023-04-13T17:17:03.173Z,12.40
2023-04-13T17:19:30.141Z,12.30
2023-04-13T17:21:57.093Z,12.20
2023-04-13T17:24:24.216Z,12.10
2023-04-13T17:26:51.314Z,12.10
2023-04-13T17:29:22.059Z,11.90
2023-04-13T17:31:49.902Z,11.90
2023-04-13T17:34:17.351Z,11.80
2023-04-13T17:36:46.958Z,11.70
2023-04-13T17:39:14.345Z,11.70
2023-04-13T17:41:41.780Z,11.70
2023-04-13T17:44:09.128Z,11.70
2023-04-13T17:46:36.199Z,11.60
2023-04-13T17:49:04.279Z,11.50
2023-04-13T17:51:32.090Z,11.40
2023-04-13T17:53:59.202Z,11.30
2023-04-13T17:56:30.800Z,11.20
2023-04-13T17:59:01.523Z,11.10
2023-04-13T18:01:29.075Z,11.10
2023-04-13T18:03:59.857Z,11.00
2023-04-13T18:06:27.612Z,10.80
2023-04-13T18:08:54.471Z,10.70
2023-04-13T18:11:21.408Z,10.60
2023-04-13T18:13:50.860Z,10.50
2023-04-13T18:16:18.018Z,10.40
2023-04-13T18:18:46.395Z,10.20
2023-04-13T18:21:14.173Z,10.10
2023-04-13T18:23:41.128Z,10.00
2023-04-13T18:26:08.175Z,9.90
2023-04-13T18:28:36.946Z,9.80
2023-04-13T18:31:05.821Z,9.70
2023-04-13T18:33:40.249Z,9.70
2023-04-13T18:36:07.530Z,9.70
2023-04-13T18:38:34.557Z,9.60
2023-04-13T18:41:01.801Z,9.50
2023-04-13T18:43:30.830Z,9.50
2023-04-13T18:45:57.869Z,9.50
2023-04-13T18:48:24.894Z,9.50
2023-04-13T18:50:52.077Z,9.60
2023-04-13T18:53:19.222Z,9.70
2023-04-13T18:55:50.258Z,9.60
2023-04-13T18:58:20.899Z,9.50
2023-04-13T19:00:48.323Z,9.40
2023-04-13T19:03:15.576Z,9.30
2023-04-13T19:05:42.654Z,9.20
2023-04-13T19:08:13.387Z,9.00
2023-04-13T19:10:42.382Z,8.90
2023-04-13T19:13:09.697Z,8.80
2023-04-13T19:15:36.933Z,8.80
2023-04-13T19:18:04.647Z,8.70
2023-04-13T19:20:31.738Z,8.60
2023-04-13T19:22:58.675Z,8.50
2023-04-13T19:25:25.915Z,8.50
2023-04-13T19:27:53.545Z,8.50
2023-04-13T19:30:27.873Z,8.50
2023-04-13T19:32:55.551Z,8.50
2023-04-13T19:35:24.779Z,8.50
2023-04-13T19:37:52.456Z,8.50
2023-04-13T19:40:19.757Z,8.40
2023-04-13T19:42:47.085Z,8.50
2023-04-13T19:45:15.024Z,8.50
2023-04-13T19:47:42.583Z,8.60
2023-04-13T19:50:11.891Z,8.60
2023-04-13T19:52:41.498Z,8.50
2023-04-13T19:55:11.039Z,8.60
2023-04-13T19:57:42.118Z,8.60
2023-04-13T20:00:20.746Z,8.60
2023-04-13T20:02:49.930Z,8.70
2023-04-13T20:05:18.399Z,8.60
2023-04-13T20:07:45.383Z,8.40
2023-04-13T20:10:12.786Z,8.30
2023-04-13T20:12:39.820Z,8.20
2023-04-13T20:15:07.745Z,8.10
2023-04-13T20:17:34.813Z,8.10
2023-04-13T20:20:01.916Z,8.10
2023-04-13T20:22:29.148Z,8.00
2023-04-13T20:24:56.181Z,8.00
2023-04-13T20:27:23.113Z,8.00
2023-04-13T20:29:52.466Z,8.00
2023-04-13T20:32:20.400Z,8.00
2023-04-13T20:34:48.744Z,7.90
2023-04-13T20:37:18.502Z,7.90
2023-04-13T20:39:53.131Z,7.90
2023-04-13T20:42:21.962Z,7.90
2023-04-13T20:44:57.379Z,7.80
2023-04-13T20:47:26.366Z,7.70
2023-04-13T20:49:54.670Z,7.60
2023-04-13T20:52:23.661Z,7.40
2023-04-13T20:54:51.695Z,7.40
2023-04-13T20:57:20.059Z,7.30
2023-04-13T20:59:47.936Z,7.10
2023-04-13T21:02:15.870Z,6.80
2023-04-13T21:04:43.017Z,6.70
2023-04-13T21:07:14.082Z,6.50
2023-04-13T21:09:41.687Z,6.40
2023-04-13T21:12:09.045Z,6.30
2023-04-13T21:14:36.209Z,6.20
2023-04-13T21:17:03.201Z,6.20
2023-04-13T21:19:30.235Z,6.20
2023-04-13T21:21:57.785Z,6.20
2023-04-13T21:24:25.148Z,6.10
2023-04-13T21:26:52.120Z,5.90
2023-04-13T21:29:20.311Z,5.80
2023-04-13T21:31:48.443Z,5.70
2023-04-13T21:34:16.947Z,5.60
2023-04-13T21:39:17.202Z,5.40
2023-04-13T21:41:44.376Z,5.30
2023-04-13T21:44:28.286Z,5.30
2023-04-13T21:46:57.127Z,5.20
2023-04-13T21:49:24.404Z,5.10
2023-04-13T21:51:51.332Z,5.10
2023-04-13T21:54:18.231Z,5.10
2023-04-13T21:56:45.133Z,5.10
2023-04-13T21:59:16.725Z,5.00
2023-04-13T22:01:46.083Z,4.90
2023-04-13T22:04:13.640Z,4.90
2023-04-13T22:06:40.773Z,4.80
2023-04-13T22:09:08.368Z,4.70
2023-04-13T22:11:35.352Z,4.60
2023-04-13T22:14:02.875Z,4.50
2023-04-13T22:16:30.231Z,4.40
2023-04-13T22:18:59.223Z,4.30
2023-04-13T22:21:26.952Z,4.30
2023-04-13T22:23:54.490Z,4.40
2023-04-13T22:26:21.855Z,4.50
2023-04-13T22:28:48.807Z,4.50
2023-04-13T22:31:43.679Z,4.50
2023-04-13T22:34:11.277Z,4.50
2023-04-13T22:36:58.258Z,4.70
2023-04-13T22:39:25.593Z,4.70
2023-04-13T22:41:52.566Z,4.80
2023-04-13T22:44:19.641Z,4.80
2023-04-13T22:46:46.803Z,4.90
2023-04-13T22:49:21.109Z,5.00
2023-04-13T22:51:48.478Z,5.00
2023-04-13T22:54:15.739Z,4.90
2023-04-13T22:56:43.092Z,4.90
2023-04-13T22:59:11.181Z,4.80
2023-04-13T23:01:38.386Z,4.70
2023-04-13T23:04:06.796Z,4.70
2023-04-13T23:06:36.756Z,4.70
2023-04-13T23:09:03.768Z,4.70
2023-04-13T23:11:30.800Z,4.80
2023-04-13T23:13:57.758Z,4.70
2023-04-13T23:16:24.931Z,4.80
2023-04-13T23:18:54.404Z,4.80
2023-04-13T23:21:21.874Z,4.80
2023-04-13T23:23:48.770Z,4.80
2023-04-13T23:26:15.737Z,4.70
2023-04-13T23:28:42.677Z,4.70
2023-04-13T23:31:10.266Z,4.50
2023-04-13T23:33:41.155Z,4.40
2023-04-13T23:36:09.119Z,4.30
2023-04-13T23:38:36.699Z,4.30
2023-04-13T23:41:06.483Z,4.30
2023-04-13T23:43:33.487Z,4.30
2023-04-13T23:46:02.269Z,4.30
2023-04-13T23:48:29.371Z,4.40
2023-04-13T23:50:57.574Z,4.40
2023-04-13T23:53:27.072Z,4.40
2023-04-13T23:55:53.960Z,4.30
2023-04-13T23:58:21.228Z,4.20
